createdAt,value
2017-11-21T00:00:47.258Z,12.68
2017-11-21T00:03:13.892Z,13.45
2017-11-21T00:05:40.588Z,11.20
2017-11-21T00:08:07.196Z,12.60
2017-11-21T00:10:33.827Z,12.80
2017-11-21T00:13:00.447Z,13.30
2017-11-21T00:15:27.142Z,14.43
2017-11-21T00:17:53.760Z,13.13
2017-11-21T00:20:20.383Z,14.35
2017-11-21T00:22:47.011Z,15.88
2017-11-21T00:25:13.635Z,19.25
2017-11-21T00:27:40.248Z,21.87
2017-11-21T00:30:06.885Z,20.37
2017-11-21T00:32:33.502Z,20.42
2017-11-21T00:35:00.142Z,19.80
2017-11-21T00:37:26.764Z,15.45
2017-11-21T00:39:53.383Z,13.60
2017-11-21T00:42:20.072Z,13.10
2017-11-21T00:44:46.690Z,12.37
2017-11-21T00:47:13.356Z,14.37
2017-11-21T00:49:39.988Z,11.80
2017-11-21T00:52:06.625Z,14.38
2017-11-21T00:54:33.244Z,11.65
2017-11-21T00:56:59.877Z,12.10
2017-11-21T00:59:26.489Z,12.80
2017-11-21T01:01:53.100Z,13.18
2017-11-21T01:04:19.819Z,12.05
2017-11-21T01:06:46.434Z,11.32
2017-11-21T01:09:13.094Z,12.98
2017-11-21T01:11:39.832Z,11.48
2017-11-21T01:14:06.452Z,12.50
2017-11-21T01:16:33.064Z,10.82
2017-11-21T01:18:59.704Z,13.02
2017-11-21T01:21:26.320Z,10.80
2017-11-21T01:23:52.927Z,9.82
2017-11-21T01:26:19.555Z,10.38
2017-11-21T01:28:46.170Z,14.40
2017-11-21T01:31:12.782Z,11.15
2017-11-21T01:33:39.419Z,12.30
2017-11-21T01:36:06.024Z,10.07
2017-11-21T01:38:32.643Z,9.85
2017-11-21T01:40:59.271Z,10.50
2017-11-21T01:43:25.880Z,9.50
2017-11-21T01:45:52.491Z,11.50
2017-11-21T01:48:19.106Z,9.60
2017-11-21T01:50:45.727Z,9.27
2017-11-21T01:53:12.325Z,9.23
2017-11-21T01:55:38.948Z,8.73
2017-11-21T01:58:05.601Z,9.02
2017-11-21T02:00:32.216Z,9.57
2017-11-21T02:03:04.787Z,9.10
2017-11-21T02:05:31.412Z,9.65
2017-11-21T02:07:58.025Z,8.85
2017-11-21T02:10:24.661Z,9.07
2017-11-21T02:12:51.263Z,9.55
2017-11-21T02:15:17.955Z,9.38
2017-11-21T02:17:44.578Z,8.73
2017-11-21T02:20:11.196Z,9.25
2017-11-21T02:22:37.795Z,9.77
2017-11-21T02:25:04.433Z,8.93
2017-11-21T02:27:31.055Z,9.48
2017-11-21T02:29:57.659Z,8.75
2017-11-21T02:32:24.284Z,9.55
2017-11-21T02:34:50.892Z,9.32
2017-11-21T02:37:17.499Z,8.65
2017-11-21T02:39:44.111Z,8.55
2017-11-21T02:42:10.808Z,9.20
2017-11-21T02:44:37.436Z,8.20
2017-11-21T02:47:04.041Z,8.45
2017-11-21T02:49:30.659Z,8.55
2017-11-21T02:51:57.284Z,8.75
2017-11-21T02:54:23.893Z,9.75
2017-11-21T02:56:50.531Z,7.55
2017-11-21T02:59:17.179Z,8.40
2017-11-21T03:01:43.818Z,6.70
2017-11-21T03:04:10.470Z,8.40
2017-11-21T03:06:37.107Z,7.62
2017-11-21T03:09:03.715Z,7.57
2017-11-21T03:11:30.323Z,8.63
2017-11-21T03:13:56.942Z,7.65
2017-11-21T03:16:23.543Z,7.45
2017-11-21T03:18:50.150Z,6.90
2017-11-21T03:21:22.791Z,6.93
2017-11-21T03:23:55.228Z,7.70
2017-11-21T03:26:21.847Z,7.80
2017-11-21T03:28:48.479Z,8.25
2017-11-21T03:31:15.160Z,8.00
2017-11-21T03:33:41.776Z,7.03
2017-11-21T03:36:08.478Z,8.25
2017-11-21T03:38:35.091Z,6.80
2017-11-21T03:41:01.728Z,9.90
2017-11-21T03:43:28.392Z,11.25
2017-11-21T03:45:55.097Z,8.88
2017-11-21T03:48:21.708Z,10.50
2017-11-21T03:50:48.327Z,8.95
2017-11-21T03:53:14.964Z,8.10
2017-11-21T03:55:41.580Z,7.97
2017-11-21T03:58:08.191Z,8.10
2017-11-21T04:00:34.814Z,7.20
2017-11-21T04:03:01.481Z,7.03
2017-11-21T04:05:28.091Z,7.60
2017-11-21T04:07:54.706Z,8.00
2017-11-21T04:10:21.319Z,7.28
2017-11-21T04:12:47.936Z,6.65
2017-11-21T04:15:14.571Z,7.78
2017-11-21T04:17:41.192Z,7.50
2017-11-21T04:20:07.796Z,6.10
2017-11-21T04:22:34.419Z,7.22
2017-11-21T04:25:01.032Z,7.65
2017-11-21T04:27:27.693Z,8.32
2017-11-21T04:29:54.399Z,8.00
2017-11-21T04:32:21.004Z,7.05
2017-11-21T04:34:47.712Z,6.93
2017-11-21T04:37:14.319Z,7.05
2017-11-21T04:39:40.960Z,8.10
2017-11-21T04:42:07.584Z,6.50
2017-11-21T04:44:34.186Z,6.85
2017-11-21T04:47:00.811Z,6.40
2017-11-21T04:49:27.499Z,6.80
2017-11-21T04:51:54.104Z,6.53
2017-11-21T04:54:20.712Z,7.53
2017-11-21T04:56:47.336Z,7.50
2017-11-21T04:59:13.942Z,7.62
2017-11-21T05:01:40.552Z,7.18
2017-11-21T05:04:07.267Z,7.70
2017-11-21T05:06:33.847Z,8.60
2017-11-21T05:09:00.461Z,8.80
2017-11-21T05:11:27.070Z,8.65
2017-11-21T05:13:53.680Z,9.13
2017-11-21T05:16:20.294Z,8.45
2017-11-21T05:18:46.970Z,8.00
2017-11-21T05:21:13.611Z,8.32
2017-11-21T05:23:40.247Z,8.82
2017-11-21T05:26:06.848Z,7.05
2017-11-21T05:28:33.480Z,9.32
2017-11-21T05:31:00.104Z,8.25
2017-11-21T05:33:33.245Z,7.60
2017-11-21T05:35:59.993Z,9.05
2017-11-21T05:38:26.987Z,8.38
2017-11-21T05:40:53.609Z,8.68
2017-11-21T05:43:20.570Z,8.38
2017-11-21T05:45:47.927Z,7.85
2017-11-21T05:48:16.130Z,8.40
2017-11-21T05:50:42.909Z,8.68
2017-11-21T05:53:09.527Z,8.70
2017-11-21T05:55:36.428Z,9.35
2017-11-21T05:58:06.696Z,8.00
2017-11-21T06:00:35.008Z,8.68
2017-11-21T06:03:01.779Z,8.10
2017-11-21T06:05:28.492Z,8.73
2017-11-21T06:07:55.099Z,8.55
2017-11-21T06:10:21.715Z,8.95
2017-11-21T06:12:48.404Z,7.70
2017-11-21T06:15:15.022Z,10.13
2017-11-21T06:20:15.721Z,9.27
2017-11-21T06:22:42.328Z,9.88
2017-11-21T06:25:08.945Z,10.05
2017-11-21T06:27:35.572Z,9.10
2017-11-21T06:30:02.182Z,11.93
2017-11-21T06:32:28.796Z,9.68
2017-11-21T06:34:55.454Z,10.40
2017-11-21T06:37:22.155Z,10.18
2017-11-21T06:39:48.796Z,11.12
2017-11-21T06:42:15.421Z,10.30
2017-11-21T06:44:42.038Z,10.88
2017-11-21T06:47:08.659Z,10.88
2017-11-21T06:49:35.286Z,11.75
2017-11-21T06:52:01.987Z,11.40
2017-11-21T06:54:28.635Z,10.07
2017-11-21T06:56:55.257Z,8.20
2017-11-21T06:59:21.947Z,10.90
2017-11-21T07:01:48.650Z,9.73
2017-11-21T07:04:15.304Z,8.25
2017-11-21T07:06:41.923Z,8.80
2017-11-21T07:09:08.579Z,10.77
2017-11-21T07:11:35.191Z,7.97
2017-11-21T07:14:01.819Z,8.98
2017-11-21T07:16:28.424Z,8.98
2017-11-21T07:18:55.167Z,9.90
2017-11-21T07:21:21.795Z,9.65
2017-11-21T07:23:48.495Z,9.60
2017-11-21T07:26:15.151Z,12.00
2017-11-21T07:28:41.783Z,11.20
2017-11-21T07:31:08.396Z,10.77
2017-11-21T07:33:35.035Z,9.63
2017-11-21T07:36:01.653Z,11.05
2017-11-21T07:38:28.275Z,12.43
2017-11-21T07:40:55.183Z,11.27
2017-11-21T07:43:21.887Z,9.60
2017-11-21T07:45:48.500Z,10.05
2017-11-21T07:48:15.241Z,10.70
2017-11-21T07:50:42.215Z,9.80
2017-11-21T07:53:08.833Z,11.27
2017-11-21T07:55:35.445Z,10.80
2017-11-21T07:58:02.104Z,10.77
2017-11-21T08:00:28.716Z,10.45
2017-11-21T08:02:55.336Z,10.02
2017-11-21T08:05:21.980Z,11.32
2017-11-21T08:07:48.600Z,9.97
2017-11-21T08:10:15.306Z,10.02
2017-11-21T08:12:41.928Z,10.65
2017-11-21T08:15:08.643Z,9.32
2017-11-21T08:17:35.257Z,10.10
2017-11-21T08:20:01.884Z,10.48
2017-11-21T08:22:28.608Z,12.30
2017-11-21T08:24:55.241Z,10.80
2017-11-21T08:27:21.844Z,9.90
2017-11-21T08:29:48.459Z,10.05
2017-11-21T08:32:15.083Z,9.25
2017-11-21T08:34:41.795Z,9.70
2017-11-21T08:37:08.390Z,9.10
2017-11-21T08:39:35.025Z,9.65
2017-11-21T08:42:01.631Z,9.40
2017-11-21T08:44:28.262Z,8.75
2017-11-21T08:46:54.888Z,9.38
2017-11-21T08:49:21.491Z,9.48
2017-11-21T08:51:48.122Z,9.90
2017-11-21T08:54:14.742Z,11.60
2017-11-21T08:56:41.403Z,10.20
2017-11-21T08:59:08.022Z,9.82
2017-11-21T09:01:34.690Z,9.63
2017-11-21T09:04:01.343Z,10.35
2017-11-21T09:06:27.956Z,10.75
2017-11-21T09:08:54.642Z,12.65
2017-11-21T09:11:21.284Z,11.90
2017-11-21T09:13:47.896Z,13.55
2017-11-21T09:16:14.502Z,13.35
2017-11-21T09:18:41.144Z,11.82
2017-11-21T09:21:07.834Z,14.30
2017-11-21T09:23:34.445Z,14.20
2017-11-21T09:26:01.123Z,13.30
2017-11-21T09:28:27.735Z,12.70
2017-11-21T09:30:54.359Z,11.12
2017-11-21T09:33:21.098Z,13.10
2017-11-21T09:35:47.704Z,12.35
2017-11-21T09:38:14.332Z,10.95
2017-11-21T09:40:40.966Z,11.55
2017-11-21T09:43:07.619Z,11.80
2017-11-21T09:45:34.237Z,11.50
2017-11-21T09:48:00.862Z,11.30
2017-11-21T09:50:27.492Z,10.35
2017-11-21T09:52:54.112Z,12.02
2017-11-21T09:55:20.855Z,12.25
2017-11-21T09:57:47.595Z,13.80
2017-11-21T10:00:14.231Z,13.32
2017-11-21T10:02:40.860Z,10.90
2017-11-21T10:05:07.489Z,10.15
2017-11-21T10:07:34.103Z,16.73
2017-11-21T10:10:00.724Z,18.35
2017-11-21T10:12:27.563Z,17.00
2017-11-21T10:14:54.614Z,13.80
2017-11-21T10:17:21.353Z,11.80
2017-11-21T10:19:48.067Z,10.93
2017-11-21T10:22:14.836Z,10.63
2017-11-21T10:24:41.610Z,9.25
2017-11-21T10:27:08.226Z,10.77
2017-11-21T10:29:35.067Z,10.68
2017-11-21T10:32:01.806Z,10.60
2017-11-21T10:34:29.015Z,9.73
2017-11-21T10:36:56.812Z,9.10
2017-11-21T10:39:23.436Z,10.77
2017-11-21T10:41:50.062Z,8.20
2017-11-21T10:44:16.709Z,7.57
2017-11-21T10:46:43.342Z,8.13
2017-11-21T10:49:10.060Z,8.45
2017-11-21T10:51:36.659Z,8.57
2017-11-21T10:54:03.284Z,7.15
2017-11-21T10:56:29.908Z,9.45
2017-11-21T10:58:57.408Z,7.40
2017-11-21T11:01:24.134Z,9.30
2017-11-21T11:03:50.743Z,6.95
2017-11-21T11:06:17.925Z,6.22
2017-11-21T11:08:45.177Z,7.95
2017-11-21T11:11:11.889Z,6.70
2017-11-21T11:13:38.514Z,6.87
2017-11-21T11:16:05.713Z,6.03
2017-11-21T11:18:33.229Z,8.07
2017-11-21T11:20:59.938Z,5.60
2017-11-21T11:23:26.733Z,5.05
2017-11-21T11:25:53.672Z,7.78
2017-11-21T11:28:21.224Z,8.15
2017-11-21T11:30:48.606Z,8.77
2017-11-21T11:33:15.467Z,9.30
2017-11-21T11:35:42.095Z,8.07
2017-11-21T11:38:08.716Z,5.20
2017-11-21T11:40:35.354Z,4.87
2017-11-21T11:43:02.016Z,5.78
2017-11-21T11:45:28.634Z,4.25
2017-11-21T11:47:55.267Z,4.43
2017-11-21T11:50:21.891Z,4.20
2017-11-21T11:52:48.523Z,4.30
2017-11-21T11:55:15.139Z,5.00
2017-11-21T11:57:41.751Z,4.82
2017-11-21T12:00:08.371Z,4.62
2017-11-21T12:02:35.112Z,12.55
2017-11-21T12:05:01.874Z,4.40
2017-11-21T12:07:28.511Z,4.97
2017-11-21T12:09:55.111Z,5.40
2017-11-21T12:12:21.749Z,3.92
2017-11-21T12:14:48.371Z,3.60
2017-11-21T12:17:14.979Z,3.97
2017-11-21T12:19:41.593Z,3.87
2017-11-21T12:22:08.213Z,4.85
2017-11-21T12:24:34.828Z,3.92
2017-11-21T12:27:01.587Z,4.40
2017-11-21T12:29:28.201Z,4.37
2017-11-21T12:31:54.829Z,4.47
2017-11-21T12:34:21.459Z,4.00
2017-11-21T12:36:48.155Z,4.10
2017-11-21T12:39:14.879Z,4.10
2017-11-21T12:41:41.518Z,4.50
2017-11-21T12:44:08.128Z,3.95
2017-11-21T12:46:34.736Z,4.30
2017-11-21T12:49:01.367Z,4.43
2017-11-21T12:51:28.087Z,5.00
2017-11-21T12:53:54.831Z,5.40
2017-11-21T12:56:21.585Z,5.32
2017-11-21T12:58:48.213Z,4.90
2017-11-21T13:01:14.822Z,4.60
2017-11-21T13:03:41.426Z,6.85
2017-11-21T13:06:08.155Z,7.40
2017-11-21T13:08:34.823Z,8.38
2017-11-21T13:11:01.436Z,8.85
2017-11-21T13:13:28.098Z,7.65
2017-11-21T13:15:54.716Z,8.77
2017-11-21T13:18:21.343Z,7.20
2017-11-21T13:20:47.974Z,12.82
2017-11-21T13:23:14.737Z,7.18
2017-11-21T13:25:41.347Z,7.00
2017-11-21T13:28:08.419Z,6.85
2017-11-21T13:30:35.032Z,8.60
2017-11-21T13:33:01.698Z,8.57
2017-11-21T13:35:28.323Z,7.32
2017-11-21T13:37:54.935Z,5.20
2017-11-21T13:40:21.590Z,6.85
2017-11-21T13:42:48.280Z,6.15
2017-11-21T13:45:14.895Z,6.93
2017-11-21T13:47:41.496Z,5.68
2017-11-21T13:50:08.610Z,5.00
2017-11-21T13:52:35.367Z,6.03
2017-11-21T13:55:01.979Z,4.80
2017-11-21T13:57:28.683Z,4.55
2017-11-21T13:59:55.294Z,5.10
2017-11-21T14:02:21.920Z,7.62
2017-11-21T14:04:48.530Z,6.22
2017-11-21T14:07:15.565Z,6.53
2017-11-21T14:09:43.378Z,5.20
2017-11-21T14:12:10.025Z,4.78
2017-11-21T14:14:36.639Z,5.68
2017-11-21T14:17:03.312Z,5.93
2017-11-21T14:19:29.915Z,6.57
2017-11-21T14:21:56.524Z,5.47
2017-11-21T14:24:23.167Z,5.45
2017-11-21T14:26:50.343Z,5.45
2017-11-21T14:29:17.300Z,5.00
2017-11-21T14:31:44.187Z,12.25
2017-11-21T14:34:11.055Z,6.37
2017-11-21T14:36:37.763Z,5.90
2017-11-21T14:39:04.460Z,11.05
2017-11-21T14:41:31.070Z,7.28
2017-11-21T14:43:57.676Z,22.20
2017-11-21T14:46:24.454Z,8.43
2017-11-21T14:48:51.214Z,8.25
2017-11-21T14:51:17.846Z,19.42
2017-11-21T14:53:44.484Z,6.10
2017-11-21T14:56:11.108Z,8.27
2017-11-21T14:58:37.719Z,11.48
2017-11-21T15:01:04.351Z,8.05
2017-11-21T15:03:30.975Z,14.40
2017-11-21T15:05:57.612Z,11.85
2017-11-21T15:08:24.308Z,8.00
2017-11-21T15:10:50.913Z,7.28
2017-11-21T15:13:17.560Z,6.80
2017-11-21T15:15:44.283Z,11.38
2017-11-21T15:18:10.916Z,13.30
2017-11-21T15:20:37.544Z,7.70
2017-11-21T15:23:04.243Z,6.68
2017-11-21T15:25:31.484Z,6.40
2017-11-21T15:27:58.079Z,5.95
2017-11-21T15:30:24.714Z,8.52
2017-11-21T15:32:51.327Z,7.25
2017-11-21T15:35:17.959Z,8.70
2017-11-21T15:37:44.605Z,8.65
2017-11-21T15:40:11.228Z,7.15
2017-11-21T15:42:37.867Z,7.85
2017-11-21T15:45:04.479Z,7.30
2017-11-21T15:47:31.082Z,8.00
2017-11-21T15:49:57.716Z,8.27
2017-11-21T15:52:24.324Z,8.57
2017-11-21T15:54:50.945Z,11.85
2017-11-21T15:57:17.662Z,8.68
2017-11-21T15:59:44.271Z,7.45
2017-11-21T16:02:10.877Z,9.70
2017-11-21T16:04:37.509Z,7.75
2017-11-21T16:07:04.154Z,8.25
2017-11-21T16:09:30.771Z,8.25
2017-11-21T16:11:57.406Z,19.12
2017-11-21T16:14:24.015Z,8.70
2017-11-21T16:16:52.439Z,9.63
2017-11-21T16:19:19.067Z,8.27
2017-11-21T16:21:46.154Z,12.73
2017-11-21T16:24:12.843Z,11.15
2017-11-21T16:26:39.464Z,9.65
2017-11-21T16:29:06.075Z,9.30
2017-11-21T16:31:32.768Z,9.57
2017-11-21T16:33:59.380Z,8.98
2017-11-21T16:36:26.017Z,10.20
2017-11-21T16:38:52.649Z,11.70
2017-11-21T16:41:19.254Z,10.70
2017-11-21T16:43:45.875Z,10.30
2017-11-21T16:46:12.504Z,10.85
2017-11-21T16:48:39.120Z,10.35
2017-11-21T16:51:05.753Z,12.80
2017-11-21T16:53:32.379Z,10.35
2017-11-21T16:55:58.992Z,11.07
2017-11-21T16:58:25.622Z,11.80
2017-11-21T17:00:52.286Z,10.68
2017-11-21T17:03:18.907Z,12.07
2017-11-21T17:05:45.524Z,11.30
2017-11-21T17:08:12.173Z,12.90
2017-11-21T17:10:38.796Z,12.77
2017-11-21T17:13:05.430Z,12.20
2017-11-21T17:15:32.057Z,12.75
2017-11-21T17:17:58.667Z,13.43
2017-11-21T17:20:25.342Z,12.50
2017-11-21T17:22:51.969Z,12.77
2017-11-21T17:25:18.591Z,14.40
2017-11-21T17:27:45.226Z,14.77
2017-11-21T17:30:11.833Z,15.60
2017-11-21T17:32:38.439Z,14.48
2017-11-21T17:35:05.135Z,16.02
2017-11-21T17:37:31.750Z,14.45
2017-11-21T17:39:58.391Z,15.35
2017-11-21T17:42:25.028Z,15.73
2017-11-21T17:44:51.640Z,14.40
2017-11-21T17:47:18.264Z,15.45
2017-11-21T17:49:44.882Z,16.42
2017-11-21T17:52:11.521Z,16.77
2017-11-21T17:54:38.166Z,16.50
2017-11-21T17:57:04.787Z,14.52
2017-11-21T17:59:31.416Z,16.20
2017-11-21T18:01:58.052Z,18.23
2017-11-21T18:04:24.668Z,17.75
2017-11-21T18:06:51.283Z,16.17
2017-11-21T18:09:17.915Z,16.33
2017-11-21T18:11:44.535Z,15.00
2017-11-21T18:14:11.154Z,15.73
2017-11-21T18:16:37.791Z,15.25
2017-11-21T18:19:04.438Z,15.38
2017-11-21T18:21:31.105Z,15.23
2017-11-21T18:23:57.739Z,13.95
2017-11-21T18:26:24.347Z,16.30
2017-11-21T18:28:50.964Z,16.65
2017-11-21T18:31:17.663Z,15.75
2017-11-21T18:33:44.275Z,16.33
2017-11-21T18:36:10.911Z,14.80
2017-11-21T18:38:37.535Z,17.17
2017-11-21T18:41:04.159Z,17.58
2017-11-21T18:43:30.800Z,13.55
2017-11-21T18:45:57.562Z,12.85
2017-11-21T18:48:24.187Z,16.10
2017-11-21T18:50:51.132Z,14.50
2017-11-21T18:53:17.908Z,13.62
2017-11-21T18:55:44.534Z,14.00
2017-11-21T18:58:11.204Z,15.18
2017-11-21T19:00:37.827Z,13.60
2017-11-21T19:03:04.468Z,16.42
2017-11-21T19:05:31.084Z,12.30
2017-11-21T19:07:57.802Z,16.27
2017-11-21T19:10:24.427Z,14.85
2017-11-21T19:12:51.056Z,12.77
2017-11-21T19:15:17.696Z,18.10
2017-11-21T19:17:44.427Z,15.90
2017-11-21T19:20:11.046Z,15.85
2017-11-21T19:22:37.710Z,14.18
2017-11-21T19:25:04.329Z,13.80
2017-11-21T19:27:30.979Z,14.75
2017-11-21T19:29:57.616Z,15.18
2017-11-21T19:32:24.246Z,15.07
2017-11-21T19:34:50.885Z,17.58
2017-11-21T19:37:17.527Z,18.05
2017-11-21T19:39:44.144Z,16.02
2017-11-21T19:42:10.770Z,16.23
2017-11-21T19:44:37.393Z,15.98
2017-11-21T19:47:04.003Z,14.40
2017-11-21T19:49:30.645Z,18.08
2017-11-21T19:51:57.272Z,16.17
2017-11-21T19:54:23.899Z,16.58
2017-11-21T19:56:50.545Z,16.42
2017-11-21T19:59:17.182Z,17.65
2017-11-21T20:01:43.837Z,19.00
2017-11-21T20:04:10.487Z,14.73
2017-11-21T20:06:37.133Z,20.75
2017-11-21T20:09:03.760Z,17.30
2017-11-21T20:11:30.395Z,14.02
2017-11-21T20:13:57.025Z,17.87
2017-11-21T20:16:23.694Z,13.35
2017-11-21T20:18:50.395Z,15.07
2017-11-21T20:21:17.035Z,14.43
2017-11-21T20:23:43.677Z,13.43
2017-11-21T20:26:10.292Z,17.40
2017-11-21T20:28:36.907Z,16.50
2017-11-21T20:31:03.548Z,15.43
2017-11-21T20:33:30.167Z,16.00
2017-11-21T20:35:56.783Z,14.10
2017-11-21T20:38:23.420Z,14.52
2017-11-21T20:40:50.046Z,14.70
2017-11-21T20:43:16.695Z,15.60
2017-11-21T20:45:43.317Z,15.90
2017-11-21T20:48:09.931Z,16.23
2017-11-21T20:50:36.564Z,17.80
2017-11-21T20:53:03.182Z,16.62
2017-11-21T20:55:29.806Z,19.00
2017-11-21T20:57:56.449Z,15.95
2017-11-21T21:00:23.063Z,17.60
2017-11-21T21:02:49.684Z,14.13
2017-11-21T21:05:16.320Z,20.08
2017-11-21T21:07:42.940Z,15.40
2017-11-21T21:10:09.560Z,13.75
2017-11-21T21:12:36.195Z,14.38
2017-11-21T21:15:02.814Z,15.23
2017-11-21T21:17:29.427Z,14.25
2017-11-21T21:19:56.066Z,14.13
2017-11-21T21:22:22.682Z,17.85
2017-11-21T21:24:49.320Z,17.83
2017-11-21T21:27:21.820Z,16.67
2017-11-21T21:29:48.465Z,17.45
2017-11-21T21:32:15.103Z,20.00
2017-11-21T21:34:41.729Z,18.08
2017-11-21T21:37:08.370Z,16.92
2017-11-21T21:39:34.983Z,16.02
2017-11-21T21:42:01.611Z,17.00
2017-11-21T21:44:28.248Z,19.92
2017-11-21T21:46:54.863Z,14.93
2017-11-21T21:49:21.501Z,19.00
2017-11-21T21:51:48.115Z,19.48
2017-11-21T21:54:14.724Z,16.30
2017-11-21T21:56:41.356Z,15.38
2017-11-21T21:59:07.982Z,15.30
2017-11-21T22:01:34.605Z,16.12
2017-11-21T22:04:01.237Z,18.00
2017-11-21T22:06:27.883Z,20.02
2017-11-21T22:08:54.583Z,15.27
2017-11-21T22:11:21.213Z,18.20
2017-11-21T22:13:47.832Z,16.77
2017-11-21T22:16:14.510Z,16.33
2017-11-21T22:18:41.153Z,17.00
2017-11-21T22:21:07.769Z,16.02
2017-11-21T22:23:34.393Z,15.13
2017-11-21T22:26:01.020Z,17.17
2017-11-21T22:28:27.642Z,17.25
2017-11-21T22:30:54.266Z,15.90
2017-11-21T22:33:20.891Z,17.45
2017-11-21T22:35:47.515Z,17.05
2017-11-21T22:38:14.256Z,17.42
2017-11-21T22:40:40.870Z,14.95
2017-11-21T22:43:07.481Z,18.58
2017-11-21T22:45:34.107Z,17.27
2017-11-21T22:48:00.745Z,15.57
2017-11-21T22:50:27.380Z,16.35
2017-11-21T22:52:54.028Z,15.98
2017-11-21T22:55:20.651Z,15.80
2017-11-21T22:57:47.267Z,17.45
2017-11-21T23:00:13.903Z,16.42
2017-11-21T23:02:40.523Z,20.52
2017-11-21T23:05:07.141Z,16.50
2017-11-21T23:07:33.782Z,19.48
2017-11-21T23:10:00.394Z,20.50
2017-11-21T23:12:27.028Z,18.10
2017-11-21T23:14:53.652Z,15.43
2017-11-21T23:17:20.263Z,18.75
2017-11-21T23:19:46.891Z,15.93
2017-11-21T23:22:13.510Z,17.53
2017-11-21T23:24:40.176Z,15.80
2017-11-21T23:27:06.787Z,20.42
2017-11-21T23:29:33.419Z,15.95
2017-11-21T23:32:00.037Z,16.98
2017-11-21T23:34:26.963Z,16.40
2017-11-21T23:36:53.599Z,15.82
2017-11-21T23:39:20.236Z,14.98
2017-11-21T23:41:46.881Z,14.75
2017-11-21T23:44:13.507Z,33.25
2017-11-21T23:46:40.146Z,17.00
2017-11-21T23:49:06.784Z,18.17
2017-11-21T23:51:33.407Z,17.25
2017-11-21T23:54:00.071Z,16.15
2017-11-21T23:56:27.070Z,14.30
2017-11-21T23:58:53.720Z,16.20
